Weather at Laredo International Airport

Public forecast

Using degrees Fahrenheit for public forecast. Weather courtesy of forecast.io.

Current aviation weather report (METAR) for Laredo International Airport

Retrieved 2021/01/28 06:56 UTC (42 minutes ago):

KLRD 280656Z AUTO 06007KT 10SM CLR 11/M03 A3043 RMK AO2 SLP305 T01111028 PWINO

Aviation forecast (TAF) for Laredo International Airport

Retrieved 2021/01/28 06:36 UTC (1 hour ago):

TAF KLRD 280534Z 2806/2906 01009KT P6SM BKN250 FM281600 10008KT P6SM FEW080 BKN250